sensor_id;sensor_type;location;lat;lon;timestamp;temperature;humidity
83146;DHT22;73037;51.110;4.706;2024-01-15T00:02:18;2.50;75.00
83146;DHT22;73037;51.110;4.706;2024-01-15T00:04:44;2.50;75.70
83146;DHT22;73037;51.110;4.706;2024-01-15T00:07:09;2.40;75.60
83146;DHT22;73037;51.110;4.706;2024-01-15T00:09:35;2.20;76.60
83146;DHT22;73037;51.110;4.706;2024-01-15T00:12:02;2.10;77.00
83146;DHT22;73037;51.110;4.706;2024-01-15T00:14:28;2.00;77.50
83146;DHT22;73037;51.110;4.706;2024-01-15T00:16:54;2.00;78.00
83146;DHT22;73037;51.110;4.706;2024-01-15T00:19:23;1.90;78.50
83146;DHT22;73037;51.110;4.706;2024-01-15T00:21:50;1.90;78.70
83146;DHT22;73037;51.110;4.706;2024-01-15T00:24:15;1.90;78.70
83146;DHT22;73037;51.110;4.706;2024-01-15T00:26:41;1.90;79.30
83146;DHT22;73037;51.110;4.706;2024-01-15T00:29:08;1.90;79.00
83146;DHT22;73037;51.110;4.706;2024-01-15T00:31:34;1.90;79.20
83146;DHT22;73037;51.110;4.706;2024-01-15T00:34:00;1.90;79.40
83146;DHT22;73037;51.110;4.706;2024-01-15T00:36:26;1.90;79.20
83146;DHT22;73037;51.110;4.706;2024-01-15T00:38:52;1.90;79.30
83146;DHT22;73037;51.110;4.706;2024-01-15T00:41:18;1.90;79.40
83146;DHT22;73037;51.110;4.706;2024-01-15T00:43:47;1.90;79.50
83146;DHT22;73037;51.110;4.706;2024-01-15T00:46:15;2.00;79.60
83146;DHT22;73037;51.110;4.706;2024-01-15T00:48:40;1.90;79.20
83146;DHT22;73037;51.110;4.706;2024-01-15T00:51:06;1.90;79.70
83146;DHT22;73037;51.110;4.706;2024-01-15T00:53:32;1.90;79.70
83146;DHT22;73037;51.110;4.706;2024-01-15T00:55:58;1.90;79.70
83146;DHT22;73037;51.110;4.706;2024-01-15T00:58:23;1.90;79.80
83146;DHT22;73037;51.110;4.706;2024-01-15T01:00:49;2.00;79.80
83146;DHT22;73037;51.110;4.706;2024-01-15T01:03:15;2.00;79.50
83146;DHT22;73037;51.110;4.706;2024-01-15T01:05:41;2.00;79.60
83146;DHT22;73037;51.110;4.706;2024-01-15T01:08:06;2.00;79.80
83146;DHT22;73037;51.110;4.706;2024-01-15T01:10:32;2.00;79.70
83146;DHT22;73037;51.110;4.706;2024-01-15T01:12:58;2.00;79.50
83146;DHT22;73037;51.110;4.706;2024-01-15T01:15:23;2.00;79.70
83146;DHT22;73037;51.110;4.706;2024-01-15T01:17:50;2.00;79.30
83146;DHT22;73037;51.110;4.706;2024-01-15T01:20:16;2.00;79.70
83146;DHT22;73037;51.110;4.706;2024-01-15T01:22:42;2.10;79.90
83146;DHT22;73037;51.110;4.706;2024-01-15T01:25:07;2.20;79.70
83146;DHT22;73037;51.110;4.706;2024-01-15T01:27:36;2.20;79.80
83146;DHT22;73037;51.110;4.706;2024-01-15T01:30:02;2.30;79.50
83146;DHT22;73037;51.110;4.706;2024-01-15T01:32:29;2.30;79.70
83146;DHT22;73037;51.110;4.706;2024-01-15T01:34:54;2.30;79.70
83146;DHT22;73037;51.110;4.706;2024-01-15T01:37:20;2.20;79.10
83146;DHT22;73037;51.110;4.706;2024-01-15T01:39:46;2.20;79.70
83146;DHT22;73037;51.110;4.706;2024-01-15T01:42:12;2.10;79.40
83146;DHT22;73037;51.110;4.706;2024-01-15T01:44:38;2.10;79.20
83146;DHT22;73037;51.110;4.706;2024-01-15T01:47:04;2.10;79.70
83146;DHT22;73037;51.110;4.706;2024-01-15T01:49:30;2.10;80.00
83146;DHT22;73037;51.110;4.706;2024-01-15T01:51:58;2.10;79.50
83146;DHT22;73037;51.110;4.706;2024-01-15T01:54:29;2.10;79.70
83146;DHT22;73037;51.110;4.706;2024-01-15T01:56:56;2.10;79.90
83146;DHT22;73037;51.110;4.706;2024-01-15T01:59:23;2.00;79.50
83146;DHT22;73037;51.110;4.706;2024-01-15T02:01:49;2.00;79.70
83146;DHT22;73037;51.110;4.706;2024-01-15T02:04:16;2.00;79.90
83146;DHT22;73037;51.110;4.706;2024-01-15T02:06:42;1.90;79.60
83146;DHT22;73037;51.110;4.706;2024-01-15T02:09:08;1.90;80.10
83146;DHT22;73037;51.110;4.706;2024-01-15T02:11:35;1.90;80.00
83146;DHT22;73037;51.110;4.706;2024-01-15T02:14:01;2.00;80.10
83146;DHT22;73037;51.110;4.706;2024-01-15T02:16:28;2.00;79.70
83146;DHT22;73037;51.110;4.706;2024-01-15T02:18:53;2.10;80.00
83146;DHT22;73037;51.110;4.706;2024-01-15T02:21:19;2.10;79.60
83146;DHT22;73037;51.110;4.706;2024-01-15T02:23:45;2.10;79.60
83146;DHT22;73037;51.110;4.706;2024-01-15T02:26:11;2.10;79.60
83146;DHT22;73037;51.110;4.706;2024-01-15T02:28:37;2.10;79.60
83146;DHT22;73037;51.110;4.706;2024-01-15T02:31:03;2.20;79.70
83146;DHT22;73037;51.110;4.706;2024-01-15T02:33:29;2.20;79.70
83146;DHT22;73037;51.110;4.706;2024-01-15T02:35:55;2.20;79.90
83146;DHT22;73037;51.110;4.706;2024-01-15T02:38:20;2.20;79.30
83146;DHT22;73037;51.110;4.706;2024-01-15T02:40:47;2.10;79.60
83146;DHT22;73037;51.110;4.706;2024-01-15T02:43:12;2.10;79.60
83146;DHT22;73037;51.110;4.706;2024-01-15T02:45:39;2.10;79.80
83146;DHT22;73037;51.110;4.706;2024-01-15T02:48:05;2.10;79.40
83146;DHT22;73037;51.110;4.706;2024-01-15T02:50:31;2.10;79.40
83146;DHT22;73037;51.110;4.706;2024-01-15T02:52:56;2.10;79.80
83146;DHT22;73037;51.110;4.706;2024-01-15T02:55:22;2.10;79.70
83146;DHT22;73037;51.110;4.706;2024-01-15T02:57:48;2.10;79.80
83146;DHT22;73037;51.110;4.706;2024-01-15T03:00:14;2.10;79.80
83146;DHT22;73037;51.110;4.706;2024-01-15T03:02:40;2.10;79.90
83146;DHT22;73037;51.110;4.706;2024-01-15T03:05:11;2.00;79.70
83146;DHT22;73037;51.110;4.706;2024-01-15T03:07:37;2.00;79.60
83146;DHT22;73037;51.110;4.706;2024-01-15T03:10:04;2.10;79.80
83146;DHT22;73037;51.110;4.706;2024-01-15T03:12:30;2.00;79.60
83146;DHT22;73037;51.110;4.706;2024-01-15T03:14:56;2.10;80.10
83146;DHT22;73037;51.110;4.706;2024-01-15T03:17:21;2.10;79.90
83146;DHT22;73037;51.110;4.706;2024-01-15T03:19:47;2.10;79.70
83146;DHT22;73037;51.110;4.706;2024-01-15T03:22:15;2.10;79.70
83146;DHT22;73037;51.110;4.706;2024-01-15T03:24:41;2.20;79.60
83146;DHT22;73037;51.110;4.706;2024-01-15T03:27:06;2.20;79.70
83146;DHT22;73037;51.110;4.706;2024-01-15T03:29:32;2.20;79.80
83146;DHT22;73037;51.110;4.706;2024-01-15T03:31:58;2.30;79.60
83146;DHT22;73037;51.110;4.706;2024-01-15T03:34:23;2.30;79.90
83146;DHT22;73037;51.110;4.706;2024-01-15T03:36:49;2.30;79.60
83146;DHT22;73037;51.110;4.706;2024-01-15T03:39:15;2.30;79.80
83146;DHT22;73037;51.110;4.706;2024-01-15T03:41:41;2.30;79.70
83146;DHT22;73037;51.110;4.706;2024-01-15T03:44:07;2.30;79.70
83146;DHT22;73037;51.110;4.706;2024-01-15T03:46:32;2.40;79.60
83146;DHT22;73037;51.110;4.706;2024-01-15T03:48:58;2.30;79.00
83146;DHT22;73037;51.110;4.706;2024-01-15T03:51:24;2.30;79.30
83146;DHT22;73037;51.110;4.706;2024-01-15T03:53:50;2.30;79.60
83146;DHT22;73037;51.110;4.706;2024-01-15T03:56:16;2.30;79.50
83146;DHT22;73037;51.110;4.706;2024-01-15T03:58:41;2.20;79.70
83146;DHT22;73037;51.110;4.706;2024-01-15T04:01:10;2.20;79.60
83146;DHT22;73037;51.110;4.706;2024-01-15T04:03:37;2.20;79.70
83146;DHT22;73037;51.110;4.706;2024-01-15T04:06:03;2.20;79.80
83146;DHT22;73037;51.110;4.706;2024-01-15T04:08:30;2.20;79.90
83146;DHT22;73037;51.110;4.706;2024-01-15T04:10:55;2.20;79.80
83146;DHT22;73037;51.110;4.706;2024-01-15T04:13:24;2.20;79.80
83146;DHT22;73037;51.110;4.706;2024-01-15T04:15:50;2.20;79.60
83146;DHT22;73037;51.110;4.706;2024-01-15T04:18:16;2.10;79.80
83146;DHT22;73037;51.110;4.706;2024-01-15T04:20:43;2.10;79.70
83146;DHT22;73037;51.110;4.706;2024-01-15T04:23:09;2.10;80.00
83146;DHT22;73037;51.110;4.706;2024-01-15T04:25:34;2.10;80.00
83146;DHT22;73037;51.110;4.706;2024-01-15T04:28:00;2.10;80.00
83146;DHT22;73037;51.110;4.706;2024-01-15T04:30:26;2.10;80.10
83146;DHT22;73037;51.110;4.706;2024-01-15T04:32:52;2.00;79.90
83146;DHT22;73037;51.110;4.706;2024-01-15T04:35:18;2.00;79.80
83146;DHT22;73037;51.110;4.706;2024-01-15T04:37:43;2.10;80.10
83146;DHT22;73037;51.110;4.706;2024-01-15T04:40:09;2.10;80.50
83146;DHT22;73037;51.110;4.706;2024-01-15T04:42:35;2.10;79.50
83146;DHT22;73037;51.110;4.706;2024-01-15T04:45:04;2.10;80.00
83146;DHT22;73037;51.110;4.706;2024-01-15T04:47:29;2.10;79.50
83146;DHT22;73037;51.110;4.706;2024-01-15T04:49:55;2.10;79.70
83146;DHT22;73037;51.110;4.706;2024-01-15T04:52:21;2.10;79.90
83146;DHT22;73037;51.110;4.706;2024-01-15T04:54:47;2.20;79.90
83146;DHT22;73037;51.110;4.706;2024-01-15T04:57:12;2.20;79.30
83146;DHT22;73037;51.110;4.706;2024-01-15T04:59:38;2.20;79.50
83146;DHT22;73037;51.110;4.706;2024-01-15T05:02:05;2.20;79.60
83146;DHT22;73037;51.110;4.706;2024-01-15T05:04:30;2.20;79.30
83146;DHT22;73037;51.110;4.706;2024-01-15T05:06:56;2.20;79.30
83146;DHT22;73037;51.110;4.706;2024-01-15T05:09:22;2.20;79.50
83146;DHT22;73037;51.110;4.706;2024-01-15T05:11:47;2.20;79.80
83146;DHT22;73037;51.110;4.706;2024-01-15T05:14:13;2.20;79.40
83146;DHT22;73037;51.110;4.706;2024-01-15T05:16:39;2.20;79.60
83146;DHT22;73037;51.110;4.706;2024-01-15T05:19:07;2.20;78.70
83146;DHT22;73037;51.110;4.706;2024-01-15T05:21:33;2.20;78.90
83146;DHT22;73037;51.110;4.706;2024-01-15T05:23:59;2.20;79.60
83146;DHT22;73037;51.110;4.706;2024-01-15T05:26:25;2.20;79.70
83146;DHT22;73037;51.110;4.706;2024-01-15T05:28:50;2.20;79.50
83146;DHT22;73037;51.110;4.706;2024-01-15T05:31:16;2.30;79.40
83146;DHT22;73037;51.110;4.706;2024-01-15T05:33:42;2.20;79.50
83146;DHT22;73037;51.110;4.706;2024-01-15T05:36:08;2.20;78.60
83146;DHT22;73037;51.110;4.706;2024-01-15T05:38:34;2.20;79.20
83146;DHT22;73037;51.110;4.706;2024-01-15T05:41:00;2.30;79.60
83146;DHT22;73037;51.110;4.706;2024-01-15T05:43:26;2.30;78.60
83146;DHT22;73037;51.110;4.706;2024-01-15T05:45:51;2.20;78.70
83146;DHT22;73037;51.110;4.706;2024-01-15T05:48:17;2.20;79.20
83146;DHT22;73037;51.110;4.706;2024-01-15T05:50:43;2.20;79.40
83146;DHT22;73037;51.110;4.706;2024-01-15T05:53:08;2.30;79.60
83146;DHT22;73037;51.110;4.706;2024-01-15T05:55:36;2.20;78.60
83146;DHT22;73037;51.110;4.706;2024-01-15T05:58:02;2.20;79.30
83146;DHT22;73037;51.110;4.706;2024-01-15T06:00:28;2.20;79.20
83146;DHT22;73037;51.110;4.706;2024-01-15T06:02:54;2.20;79.50
83146;DHT22;73037;51.110;4.706;2024-01-15T06:05:20;2.30;79.40
83146;DHT22;73037;51.110;4.706;2024-01-15T06:07:46;2.20;79.20
83146;DHT22;73037;51.110;4.706;2024-01-15T06:10:11;2.20;79.00
83146;DHT22;73037;51.110;4.706;2024-01-15T06:12:37;2.20;79.20
83146;DHT22;73037;51.110;4.706;2024-01-15T06:15:03;2.20;79.00
83146;DHT22;73037;51.110;4.706;2024-01-15T06:17:29;2.20;78.90
83146;DHT22;73037;51.110;4.706;2024-01-15T06:19:54;2.20;79.20
83146;DHT22;73037;51.110;4.706;2024-01-15T06:22:20;2.20;78.80
83146;DHT22;73037;51.110;4.706;2024-01-15T06:24:46;2.20;79.40
83146;DHT22;73037;51.110;4.706;2024-01-15T06:27:11;2.20;78.70
83146;DHT22;73037;51.110;4.706;2024-01-15T06:29:38;2.20;78.90
83146;DHT22;73037;51.110;4.706;2024-01-15T06:32:04;2.30;79.60
83146;DHT22;73037;51.110;4.706;2024-01-15T06:34:30;2.30;79.00
83146;DHT22;73037;51.110;4.706;2024-01-15T06:36:56;2.20;78.70
83146;DHT22;73037;51.110;4.706;2024-01-15T06:39:21;2.20;78.70
83146;DHT22;73037;51.110;4.706;2024-01-15T06:41:47;2.20;79.00
83146;DHT22;73037;51.110;4.706;2024-01-15T06:44:13;2.30;79.00
83146;DHT22;73037;51.110;4.706;2024-01-15T06:46:42;2.20;78.70
83146;DHT22;73037;51.110;4.706;2024-01-15T06:49:09;2.20;78.60
83146;DHT22;73037;51.110;4.706;2024-01-15T06:51:35;2.20;79.00
83146;DHT22;73037;51.110;4.706;2024-01-15T06:54:01;2.20;78.80
83146;DHT22;73037;51.110;4.706;2024-01-15T06:56:27;2.20;78.90
83146;DHT22;73037;51.110;4.706;2024-01-15T06:58:53;2.30;78.90
83146;DHT22;73037;51.110;4.706;2024-01-15T07:01:18;2.30;78.90
83146;DHT22;73037;51.110;4.706;2024-01-15T07:03:44;2.20;78.00
83146;DHT22;73037;51.110;4.706;2024-01-15T07:06:11;2.20;78.50
83146;DHT22;73037;51.110;4.706;2024-01-15T07:08:37;2.20;78.90
83146;DHT22;73037;51.110;4.706;2024-01-15T07:11:06;2.30;78.40
83146;DHT22;73037;51.110;4.706;2024-01-15T07:13:32;2.30;78.00
83146;DHT22;73037;51.110;4.706;2024-01-15T07:15:58;2.30;78.80
83146;DHT22;73037;51.110;4.706;2024-01-15T07:18:24;2.30;78.90
83146;DHT22;73037;51.110;4.706;2024-01-15T07:20:50;2.40;78.50
83146;DHT22;73037;51.110;4.706;2024-01-15T07:23:16;2.40;78.10
83146;DHT22;73037;51.110;4.706;2024-01-15T07:25:42;2.30;77.90
83146;DHT22;73037;51.110;4.706;2024-01-15T07:28:08;2.30;77.80
83146;DHT22;73037;51.110;4.706;2024-01-15T07:30:34;2.20;78.70
83146;DHT22;73037;51.110;4.706;2024-01-15T07:33:00;2.30;78.90
83146;DHT22;73037;51.110;4.706;2024-01-15T07:35:26;2.30;79.00
83146;DHT22;73037;51.110;4.706;2024-01-15T07:37:52;2.30;78.50
83146;DHT22;73037;51.110;4.706;2024-01-15T07:40:18;2.30;79.10
83146;DHT22;73037;51.110;4.706;2024-01-15T07:42:43;2.30;79.00
83146;DHT22;73037;51.110;4.706;2024-01-15T07:45:10;2.30;78.50
83146;DHT22;73037;51.110;4.706;2024-01-15T07:47:36;2.20;78.60
83146;DHT22;73037;51.110;4.706;2024-01-15T07:50:02;2.20;78.90
83146;DHT22;73037;51.110;4.706;2024-01-15T07:52:29;2.20;79.10
83146;DHT22;73037;51.110;4.706;2024-01-15T07:54:55;2.20;79.00
83146;DHT22;73037;51.110;4.706;2024-01-15T07:57:21;2.20;79.20
83146;DHT22;73037;51.110;4.706;2024-01-15T07:59:48;2.10;79.20
83146;DHT22;73037;51.110;4.706;2024-01-15T08:02:14;2.10;79.00
83146;DHT22;73037;51.110;4.706;2024-01-15T08:04:39;2.00;78.40
83146;DHT22;73037;51.110;4.706;2024-01-15T08:07:05;1.90;79.30
83146;DHT22;73037;51.110;4.706;2024-01-15T08:09:32;1.90;79.60
83146;DHT22;73037;51.110;4.706;2024-01-15T08:11:58;1.90;79.60
83146;DHT22;73037;51.110;4.706;2024-01-15T08:14:24;1.90;79.80
83146;DHT22;73037;51.110;4.706;2024-01-15T08:16:49;1.90;79.60
83146;DHT22;73037;51.110;4.706;2024-01-15T08:19:16;1.90;79.70
83146;DHT22;73037;51.110;4.706;2024-01-15T08:21:42;1.90;79.90
83146;DHT22;73037;51.110;4.706;2024-01-15T08:24:08;2.00;79.60
83146;DHT22;73037;51.110;4.706;2024-01-15T08:26:34;2.00;79.70
83146;DHT22;73037;51.110;4.706;2024-01-15T08:29:00;2.00;79.70
83146;DHT22;73037;51.110;4.706;2024-01-15T08:31:26;2.00;79.50
83146;DHT22;73037;51.110;4.706;2024-01-15T08:33:51;2.10;79.70
83146;DHT22;73037;51.110;4.706;2024-01-15T08:36:17;2.10;79.20
83146;DHT22;73037;51.110;4.706;2024-01-15T08:38:43;2.20;79.40
83146;DHT22;73037;51.110;4.706;2024-01-15T08:41:10;2.20;79.40
83146;DHT22;73037;51.110;4.706;2024-01-15T08:43:35;2.30;78.90
83146;DHT22;73037;51.110;4.706;2024-01-15T08:46:02;2.30;78.90
83146;DHT22;73037;51.110;4.706;2024-01-15T08:48:28;2.30;79.00
83146;DHT22;73037;51.110;4.706;2024-01-15T08:50:54;2.30;79.00
83146;DHT22;73037;51.110;4.706;2024-01-15T08:53:20;2.40;78.90
83146;DHT22;73037;51.110;4.706;2024-01-15T08:55:46;2.40;78.80
83146;DHT22;73037;51.110;4.706;2024-01-15T08:58:12;2.40;79.40
83146;DHT22;73037;51.110;4.706;2024-01-15T09:00:37;2.50;79.00
83146;DHT22;73037;51.110;4.706;2024-01-15T09:03:04;2.50;78.50
83146;DHT22;73037;51.110;4.706;2024-01-15T09:05:30;2.50;78.70
83146;DHT22;73037;51.110;4.706;2024-01-15T09:07:56;2.50;79.00
83146;DHT22;73037;51.110;4.706;2024-01-15T09:10:22;2.60;78.70
83146;DHT22;73037;51.110;4.706;2024-01-15T09:12:48;2.70;77.90
83146;DHT22;73037;51.110;4.706;2024-01-15T09:15:14;2.70;77.50
83146;DHT22;73037;51.110;4.706;2024-01-15T09:17:40;2.70;77.40
83146;DHT22;73037;51.110;4.706;2024-01-15T09:20:06;2.80;77.50
83146;DHT22;73037;51.110;4.706;2024-01-15T09:22:32;2.90;78.00
83146;DHT22;73037;51.110;4.706;2024-01-15T09:24:59;2.90;76.60
83146;DHT22;73037;51.110;4.706;2024-01-15T09:27:25;2.90;77.00
83146;DHT22;73037;51.110;4.706;2024-01-15T09:29:54;2.90;77.30
83146;DHT22;73037;51.110;4.706;2024-01-15T09:32:19;2.90;77.00
83146;DHT22;73037;51.110;4.706;2024-01-15T09:34:48;2.90;76.90
83146;DHT22;73037;51.110;4.706;2024-01-15T09:37:14;2.80;77.00
83146;DHT22;73037;51.110;4.706;2024-01-15T09:39:41;2.70;77.50
83146;DHT22;73037;51.110;4.706;2024-01-15T09:42:08;2.50;76.80
83146;DHT22;73037;51.110;4.706;2024-01-15T09:44:34;2.50;77.00
83146;DHT22;73037;51.110;4.706;2024-01-15T09:47:01;2.50;77.80
83146;DHT22;73037;51.110;4.706;2024-01-15T09:49:26;2.40;78.20
83146;DHT22;73037;51.110;4.706;2024-01-15T09:51:53;2.30;78.20
83146;DHT22;73037;51.110;4.706;2024-01-15T09:54:20;2.30;78.40
83146;DHT22;73037;51.110;4.706;2024-01-15T09:56:47;2.40;78.80
83146;DHT22;73037;51.110;4.706;2024-01-15T09:59:19;2.40;78.40
83146;DHT22;73037;51.110;4.706;2024-01-15T10:01:45;2.40;78.70
83146;DHT22;73037;51.110;4.706;2024-01-15T10:04:13;2.40;77.80
83146;DHT22;73037;51.110;4.706;2024-01-15T10:06:39;2.40;78.40
83146;DHT22;73037;51.110;4.706;2024-01-15T10:09:07;2.50;77.90
83146;DHT22;73037;51.110;4.706;2024-01-15T10:11:33;2.50;77.80
83146;DHT22;73037;51.110;4.706;2024-01-15T10:13:59;2.50;77.80
83146;DHT22;73037;51.110;4.706;2024-01-15T10:16:26;2.60;78.00
83146;DHT22;73037;51.110;4.706;2024-01-15T10:18:51;2.60;78.60
83146;DHT22;73037;51.110;4.706;2024-01-15T10:21:17;2.70;78.30
83146;DHT22;73037;51.110;4.706;2024-01-15T10:23:43;2.70;77.70
83146;DHT22;73037;51.110;4.706;2024-01-15T10:26:09;2.80;77.80
83146;DHT22;73037;51.110;4.706;2024-01-15T10:28:37;2.90;77.50
83146;DHT22;73037;51.110;4.706;2024-01-15T10:31:03;3.10;77.90
83146;DHT22;73037;51.110;4.706;2024-01-15T10:33:30;3.40;78.30
83146;DHT22;73037;51.110;4.706;2024-01-15T10:35:56;3.70;76.20
83146;DHT22;73037;51.110;4.706;2024-01-15T10:38:23;4.10;76.20
83146;DHT22;73037;51.110;4.706;2024-01-15T10:40:53;4.30;74.20
83146;DHT22;73037;51.110;4.706;2024-01-15T10:43:20;4.50;73.50
83146;DHT22;73037;51.110;4.706;2024-01-15T10:45:47;4.60;73.00
83146;DHT22;73037;51.110;4.706;2024-01-15T10:48:15;4.80;70.80
83146;DHT22;73037;51.110;4.706;2024-01-15T10:50:42;4.80;73.20
83146;DHT22;73037;51.110;4.706;2024-01-15T10:53:08;4.70;72.10
83146;DHT22;73037;51.110;4.706;2024-01-15T10:55:35;4.50;72.60
83146;DHT22;73037;51.110;4.706;2024-01-15T10:58:02;4.30;73.20
83146;DHT22;73037;51.110;4.706;2024-01-15T11:00:29;4.10;72.00
83146;DHT22;73037;51.110;4.706;2024-01-15T11:02:56;4.00;70.90
83146;DHT22;73037;51.110;4.706;2024-01-15T11:05:23;3.90;73.00
83146;DHT22;73037;51.110;4.706;2024-01-15T11:07:49;3.70;70.70
83146;DHT22;73037;51.110;4.706;2024-01-15T11:10:41;3.70;72.90
83146;DHT22;73037;51.110;4.706;2024-01-15T11:13:14;3.60;71.30
83146;DHT22;73037;51.110;4.706;2024-01-15T11:15:55;3.60;73.40
83146;DHT22;73037;51.110;4.706;2024-01-15T11:18:22;3.60;70.90
83146;DHT22;73037;51.110;4.706;2024-01-15T11:28:56;3.50;70.60
83146;DHT22;73037;51.110;4.706;2024-01-15T11:34:12;3.20;72.20
83146;DHT22;73037;51.110;4.706;2024-01-15T11:37:00;3.10;73.30
83146;DHT22;73037;51.110;4.706;2024-01-15T11:41:58;3.20;72.90
83146;DHT22;73037;51.110;4.706;2024-01-15T11:44:25;3.20;72.40
83146;DHT22;73037;51.110;4.706;2024-01-15T11:47:01;3.10;72.90
83146;DHT22;73037;51.110;4.706;2024-01-15T11:52:21;2.40;75.10
83146;DHT22;73037;51.110;4.706;2024-01-15T11:55:19;2.10;76.40
83146;DHT22;73037;51.110;4.706;2024-01-15T11:57:45;2.00;77.40
83146;DHT22;73037;51.110;4.706;2024-01-15T12:00:12;2.00;77.80
83146;DHT22;73037;51.110;4.706;2024-01-15T12:02:40;2.10;78.60
83146;DHT22;73037;51.110;4.706;2024-01-15T12:05:08;2.30;77.60
83146;DHT22;73037;51.110;4.706;2024-01-15T12:07:34;2.00;77.50
83146;DHT22;73037;51.110;4.706;2024-01-15T12:10:01;1.80;78.30
83146;DHT22;73037;51.110;4.706;2024-01-15T12:12:58;1.80;78.80
83146;DHT22;73037;51.110;4.706;2024-01-15T12:15:28;1.80;79.00
83146;DHT22;73037;51.110;4.706;2024-01-15T12:17:55;1.80;79.30
83146;DHT22;73037;51.110;4.706;2024-01-15T12:20:26;1.90;79.70
83146;DHT22;73037;51.110;4.706;2024-01-15T12:22:52;2.00;79.60
83146;DHT22;73037;51.110;4.706;2024-01-15T12:25:19;2.10;78.50
83146;DHT22;73037;51.110;4.706;2024-01-15T12:27:45;2.30;79.30
83146;DHT22;73037;51.110;4.706;2024-01-15T12:30:13;2.50;79.10
83146;DHT22;73037;51.110;4.706;2024-01-15T12:32:41;2.90;79.30
83146;DHT22;73037;51.110;4.706;2024-01-15T12:35:12;2.90;78.10
83146;DHT22;73037;51.110;4.706;2024-01-15T12:37:42;2.70;77.60
83146;DHT22;73037;51.110;4.706;2024-01-15T12:40:09;2.40;77.60
83146;DHT22;73037;51.110;4.706;2024-01-15T12:42:44;2.00;77.50
83146;DHT22;73037;51.110;4.706;2024-01-15T12:45:12;1.90;79.20
83146;DHT22;73037;51.110;4.706;2024-01-15T12:47:41;1.90;79.50
83146;DHT22;73037;51.110;4.706;2024-01-15T12:50:11;1.90;79.80
83146;DHT22;73037;51.110;4.706;2024-01-15T12:52:37;1.80;78.60
83146;DHT22;73037;51.110;4.706;2024-01-15T12:55:06;1.80;79.00
83146;DHT22;73037;51.110;4.706;2024-01-15T12:57:32;1.80;79.60
83146;DHT22;73037;51.110;4.706;2024-01-15T12:59:58;1.90;79.30
83146;DHT22;73037;51.110;4.706;2024-01-15T13:02:26;2.00;79.70
83146;DHT22;73037;51.110;4.706;2024-01-15T13:04:52;2.10;79.30
83146;DHT22;73037;51.110;4.706;2024-01-15T13:07:19;2.10;79.60
83146;DHT22;73037;51.110;4.706;2024-01-15T13:09:45;2.00;78.70
83146;DHT22;73037;51.110;4.706;2024-01-15T13:12:10;2.00;79.20
83146;DHT22;73037;51.110;4.706;2024-01-15T13:14:37;1.90;79.00
83146;DHT22;73037;51.110;4.706;2024-01-15T13:17:03;1.90;79.30
83146;DHT22;73037;51.110;4.706;2024-01-15T13:19:29;1.90;79.90
83146;DHT22;73037;51.110;4.706;2024-01-15T13:21:54;2.00;79.60
83146;DHT22;73037;51.110;4.706;2024-01-15T13:24:24;2.00;79.50
83146;DHT22;73037;51.110;4.706;2024-01-15T13:26:49;2.10;79.60
83146;DHT22;73037;51.110;4.706;2024-01-15T13:29:15;2.10;78.60
83146;DHT22;73037;51.110;4.706;2024-01-15T13:31:41;2.10;78.50
83146;DHT22;73037;51.110;4.706;2024-01-15T13:34:07;2.10;79.70
83146;DHT22;73037;51.110;4.706;2024-01-15T13:36:32;2.20;80.00
83146;DHT22;73037;51.110;4.706;2024-01-15T13:38:58;2.30;80.00
83146;DHT22;73037;51.110;4.706;2024-01-15T13:41:24;2.40;80.20
83146;DHT22;73037;51.110;4.706;2024-01-15T13:43:53;2.40;78.80
83146;DHT22;73037;51.110;4.706;2024-01-15T13:46:20;2.50;79.40
83146;DHT22;73037;51.110;4.706;2024-01-15T13:48:47;2.40;79.30
83146;DHT22;73037;51.110;4.706;2024-01-15T13:51:13;2.40;79.70
83146;DHT22;73037;51.110;4.706;2024-01-15T13:53:39;2.40;78.70
83146;DHT22;73037;51.110;4.706;2024-01-15T13:56:06;2.30;79.00
83146;DHT22;73037;51.110;4.706;2024-01-15T13:58:32;2.30;79.40
83146;DHT22;73037;51.110;4.706;2024-01-15T14:01:01;2.30;79.30
83146;DHT22;73037;51.110;4.706;2024-01-15T14:03:26;2.40;80.10
83146;DHT22;73037;51.110;4.706;2024-01-15T14:05:52;2.70;80.10
83146;DHT22;73037;51.110;4.706;2024-01-15T14:08:18;2.80;78.60
83146;DHT22;73037;51.110;4.706;2024-01-15T14:10:44;2.80;78.70
83146;DHT22;73037;51.110;4.706;2024-01-15T14:13:10;2.80;79.60
83146;DHT22;73037;51.110;4.706;2024-01-15T14:15:36;2.80;78.60
83146;DHT22;73037;51.110;4.706;2024-01-15T14:18:02;2.70;79.00
83146;DHT22;73037;51.110;4.706;2024-01-15T14:20:28;2.70;79.10
83146;DHT22;73037;51.110;4.706;2024-01-15T14:22:54;2.50;78.60
83146;DHT22;73037;51.110;4.706;2024-01-15T14:25:20;2.40;77.90
83146;DHT22;73037;51.110;4.706;2024-01-15T14:27:47;2.10;78.70
83146;DHT22;73037;51.110;4.706;2024-01-15T14:30:13;2.00;78.90
83146;DHT22;73037;51.110;4.706;2024-01-15T14:32:40;1.80;78.60
83146;DHT22;73037;51.110;4.706;2024-01-15T14:35:06;1.60;78.50
83146;DHT22;73037;51.110;4.706;2024-01-15T14:37:33;1.40;79.30
83146;DHT22;73037;51.110;4.706;2024-01-15T14:39:59;1.40;79.70
83146;DHT22;73037;51.110;4.706;2024-01-15T14:42:25;1.40;79.70
83146;DHT22;73037;51.110;4.706;2024-01-15T14:44:51;1.40;80.20
83146;DHT22;73037;51.110;4.706;2024-01-15T14:47:16;1.40;80.50
83146;DHT22;73037;51.110;4.706;2024-01-15T14:49:42;1.50;80.30
83146;DHT22;73037;51.110;4.706;2024-01-15T14:52:08;1.50;80.10
83146;DHT22;73037;51.110;4.706;2024-01-15T14:54:33;1.50;79.40
83146;DHT22;73037;51.110;4.706;2024-01-15T14:57:00;1.40;80.00
83146;DHT22;73037;51.110;4.706;2024-01-15T14:59:26;1.40;80.40
83146;DHT22;73037;51.110;4.706;2024-01-15T15:01:54;1.40;80.40
83146;DHT22;73037;51.110;4.706;2024-01-15T15:04:20;1.50;80.80
83146;DHT22;73037;51.110;4.706;2024-01-15T15:06:45;1.50;80.50
83146;DHT22;73037;51.110;4.706;2024-01-15T15:09:11;1.50;80.70
83146;DHT22;73037;51.110;4.706;2024-01-15T15:11:37;1.60;80.60
83146;DHT22;73037;51.110;4.706;2024-01-15T15:14:03;1.70;80.50
83146;DHT22;73037;51.110;4.706;2024-01-15T15:16:32;1.70;80.50
83146;DHT22;73037;51.110;4.706;2024-01-15T15:18:58;1.70;80.40
83146;DHT22;73037;51.110;4.706;2024-01-15T15:21:24;1.70;80.80
83146;DHT22;73037;51.110;4.706;2024-01-15T15:23:49;1.70;80.20
83146;DHT22;73037;51.110;4.706;2024-01-15T15:26:15;1.60;79.60
83146;DHT22;73037;51.110;4.706;2024-01-15T15:28:41;1.50;79.70
83146;DHT22;73037;51.110;4.706;2024-01-15T15:31:07;1.40;79.90
83146;DHT22;73037;51.110;4.706;2024-01-15T15:33:38;1.40;81.00
83146;DHT22;73037;51.110;4.706;2024-01-15T15:36:05;1.40;80.70
83146;DHT22;73037;51.110;4.706;2024-01-15T15:38:31;1.40;81.10
83146;DHT22;73037;51.110;4.706;2024-01-15T15:40:57;1.40;80.30
83146;DHT22;73037;51.110;4.706;2024-01-15T15:43:25;1.40;81.10
83146;DHT22;73037;51.110;4.706;2024-01-15T15:45:51;1.40;81.10
83146;DHT22;73037;51.110;4.706;2024-01-15T15:48:16;1.40;81.20
83146;DHT22;73037;51.110;4.706;2024-01-15T15:50:42;1.40;81.10
83146;DHT22;73037;51.110;4.706;2024-01-15T15:53:08;1.40;81.20
83146;DHT22;73037;51.110;4.706;2024-01-15T15:55:33;1.50;81.20
83146;DHT22;73037;51.110;4.706;2024-01-15T15:58:02;1.50;81.00